createdAt,value
2022-08-31T00:00:23.681Z,8.52
2022-08-31T00:03:09.318Z,4.30
2022-08-31T00:05:39.660Z,3.85
2022-08-31T00:08:08.296Z,4.00
2022-08-31T00:10:41.228Z,6.38
2022-08-31T00:13:13.453Z,6.88
2022-08-31T00:15:42.120Z,3.97
2022-08-31T00:18:10.913Z,6.80
2022-08-31T00:20:39.243Z,8.95
2022-08-31T00:23:10.781Z,3.30
2022-08-31T00:25:41.059Z,11.75
2022-08-31T00:28:09.981Z,3.72
2022-08-31T00:30:40.223Z,4.82
2022-08-31T00:33:09.384Z,4.10
2022-08-31T00:35:38.469Z,10.95
2022-08-31T00:38:07.471Z,21.33
2022-08-31T00:40:44.433Z,7.90
2022-08-31T00:43:14.271Z,4.32
2022-08-31T00:45:43.881Z,9.20
2022-08-31T00:48:12.259Z,3.15
2022-08-31T00:50:40.554Z,2.80
2022-08-31T00:53:08.874Z,3.50
2022-08-31T00:55:38.838Z,5.82
2022-08-31T00:58:11.666Z,3.65
2022-08-31T01:00:42.825Z,2.95
2022-08-31T01:03:12.978Z,9.02
2022-08-31T01:05:42.000Z,3.78
2022-08-31T01:08:10.752Z,3.53
2022-08-31T01:10:43.818Z,5.03
2022-08-31T01:13:13.629Z,5.72
2022-08-31T01:15:46.839Z,4.80
2022-08-31T01:18:21.027Z,7.18
2022-08-31T01:21:00.320Z,4.20
2022-08-31T01:23:34.532Z,10.07
2022-08-31T01:26:04.971Z,7.32
2022-08-31T01:28:33.457Z,5.22
2022-08-31T01:31:07.057Z,5.55
2022-08-31T01:33:37.143Z,4.40
2022-08-31T01:36:06.599Z,4.55
2022-08-31T01:38:37.168Z,4.22
2022-08-31T01:41:06.837Z,4.90
2022-08-31T01:43:35.956Z,7.40
2022-08-31T01:46:05.376Z,5.60
2022-08-31T01:48:41.152Z,4.65
2022-08-31T01:51:12.756Z,5.53
2022-08-31T01:53:45.545Z,8.20
2022-08-31T01:56:19.410Z,9.05
2022-08-31T01:58:47.638Z,10.90
2022-08-31T02:01:32.739Z,7.90
2022-08-31T02:04:03.558Z,6.43
2022-08-31T02:06:32.713Z,9.10
2022-08-31T02:09:03.309Z,7.43
2022-08-31T02:11:31.653Z,9.60
2022-08-31T02:14:00.063Z,9.02
2022-08-31T02:16:28.618Z,8.82
2022-08-31T02:18:57.118Z,8.40
2022-08-31T02:21:25.844Z,6.80
2022-08-31T02:23:54.367Z,10.02
2022-08-31T02:26:26.018Z,14.68
2022-08-31T02:28:54.596Z,13.02
2022-08-31T02:31:23.014Z,7.10
2022-08-31T02:33:51.411Z,7.32
2022-08-31T02:36:19.558Z,10.68
2022-08-31T02:38:48.044Z,9.18
2022-08-31T02:41:17.755Z,8.85
2022-08-31T02:43:47.333Z,7.47
2022-08-31T02:46:15.593Z,6.18
2022-08-31T02:48:43.905Z,8.05
2022-08-31T02:51:12.822Z,5.60
2022-08-31T02:53:41.321Z,5.78
2022-08-31T02:56:09.707Z,7.72
2022-08-31T02:58:38.126Z,16.77
2022-08-31T03:01:08.269Z,13.63
2022-08-31T03:03:36.565Z,15.85
2022-08-31T03:06:05.658Z,11.10
2022-08-31T03:08:34.085Z,9.73
2022-08-31T03:11:02.538Z,11.02
2022-08-31T03:13:30.749Z,10.48
2022-08-31T03:15:59.114Z,10.07
2022-08-31T03:18:28.928Z,14.38
2022-08-31T03:20:57.088Z,11.70
2022-08-31T03:23:25.331Z,10.07
2022-08-31T03:25:53.575Z,11.00
2022-08-31T03:28:21.847Z,13.48
2022-08-31T03:30:50.175Z,12.02
2022-08-31T03:33:18.673Z,14.60
2022-08-31T03:35:48.607Z,13.05
2022-08-31T03:38:17.186Z,15.77
2022-08-31T03:40:46.107Z,13.73
2022-08-31T03:43:15.343Z,12.65
2022-08-31T03:45:44.047Z,11.52
2022-08-31T03:48:13.268Z,17.73
2022-08-31T03:50:43.212Z,12.60
2022-08-31T03:53:15.018Z,13.15
2022-08-31T03:55:44.491Z,8.63
2022-08-31T03:58:13.351Z,16.10
2022-08-31T04:00:44.011Z,13.88
2022-08-31T04:03:14.071Z,11.90
2022-08-31T04:05:45.324Z,13.25
2022-08-31T04:08:16.091Z,18.65
2022-08-31T04:10:46.240Z,15.52
2022-08-31T04:13:14.448Z,9.43
2022-08-31T04:15:43.226Z,14.18
2022-08-31T04:18:11.556Z,12.40
2022-08-31T04:20:41.025Z,9.45
2022-08-31T04:23:09.872Z,17.75
2022-08-31T04:25:43.419Z,17.65
2022-08-31T04:28:12.235Z,12.10
2022-08-31T04:30:42.024Z,15.45
2022-08-31T04:33:10.664Z,13.90
2022-08-31T04:35:41.465Z,11.77
2022-08-31T04:38:10.101Z,11.23
2022-08-31T04:40:39.002Z,15.77
2022-08-31T04:43:09.841Z,18.17
2022-08-31T04:45:42.843Z,14.02
2022-08-31T04:48:14.508Z,17.50
2022-08-31T04:50:43.309Z,17.50
2022-08-31T04:53:12.201Z,18.40
2022-08-31T04:55:42.044Z,14.63
2022-08-31T04:58:13.129Z,14.75
2022-08-31T05:00:44.251Z,21.15
2022-08-31T05:03:12.449Z,14.00
2022-08-31T05:05:40.903Z,14.80
2022-08-31T05:08:09.967Z,11.85
2022-08-31T05:10:40.637Z,17.67
2022-08-31T05:13:08.764Z,13.25
2022-08-31T05:15:42.513Z,11.18
2022-08-31T05:18:11.717Z,15.00
2022-08-31T05:20:41.690Z,12.73
2022-08-31T05:23:11.549Z,11.00
2022-08-31T05:25:41.086Z,12.68
2022-08-31T05:28:09.592Z,11.35
2022-08-31T05:30:39.591Z,17.65
2022-08-31T05:33:07.827Z,9.30
2022-08-31T05:35:36.347Z,11.88
2022-08-31T05:38:04.862Z,10.65
2022-08-31T05:40:33.084Z,8.40
2022-08-31T05:43:01.387Z,18.17
2022-08-31T05:45:29.608Z,9.52
2022-08-31T05:47:59.211Z,13.70
2022-08-31T05:50:27.335Z,8.63
2022-08-31T05:52:55.648Z,13.10
2022-08-31T05:55:23.948Z,10.70
2022-08-31T05:57:52.691Z,10.40
2022-08-31T06:00:21.142Z,9.90
2022-08-31T06:02:53.737Z,8.88
2022-08-31T06:05:23.974Z,7.38
2022-08-31T06:07:52.422Z,11.30
2022-08-31T06:10:21.044Z,12.10
2022-08-31T06:12:49.936Z,11.77
2022-08-31T06:15:18.462Z,14.40
2022-08-31T06:17:46.613Z,13.13
2022-08-31T06:20:17.806Z,8.43
2022-08-31T06:22:48.299Z,11.07
2022-08-31T06:25:17.591Z,8.25
2022-08-31T06:27:49.200Z,10.43
2022-08-31T06:30:19.328Z,9.27
2022-08-31T06:32:47.962Z,9.15
2022-08-31T06:35:16.425Z,10.23
2022-08-31T06:37:45.255Z,7.00
2022-08-31T06:40:14.929Z,6.10
2022-08-31T06:42:43.220Z,6.75
2022-08-31T06:45:12.531Z,9.75
2022-08-31T06:47:40.691Z,8.75
2022-08-31T06:50:09.996Z,11.38
2022-08-31T06:52:39.041Z,6.82
2022-08-31T06:55:08.331Z,8.20
2022-08-31T06:57:38.526Z,6.80
2022-08-31T07:00:08.509Z,5.93
2022-08-31T07:02:37.029Z,7.30
2022-08-31T07:05:05.712Z,5.40
2022-08-31T07:07:34.144Z,7.40
2022-08-31T07:10:02.356Z,7.90
2022-08-31T07:12:30.902Z,6.88
2022-08-31T07:15:00.450Z,8.52
2022-08-31T07:17:29.329Z,6.67
2022-08-31T07:19:57.523Z,8.43
2022-08-31T07:22:25.681Z,7.53
2022-08-31T07:24:53.771Z,6.93
2022-08-31T07:27:21.861Z,10.10
2022-08-31T07:29:50.416Z,12.70
2022-08-31T07:32:20.131Z,12.70
2022-08-31T07:34:55.221Z,7.00
2022-08-31T07:37:42.837Z,9.97
2022-08-31T07:40:29.318Z,7.17
2022-08-31T07:42:57.699Z,7.67
2022-08-31T07:45:30.268Z,7.30
2022-08-31T07:48:01.493Z,7.37
2022-08-31T07:50:31.769Z,5.63
2022-08-31T07:53:00.392Z,7.17
2022-08-31T07:55:30.256Z,10.73
2022-08-31T07:57:58.907Z,14.53
2022-08-31T08:00:29.056Z,7.07
2022-08-31T08:03:01.715Z,8.90
2022-08-31T08:05:38.817Z,7.60
2022-08-31T08:08:13.458Z,6.73
2022-08-31T08:10:52.260Z,8.80
2022-08-31T08:13:22.078Z,12.10
2022-08-31T08:15:52.305Z,8.03
2022-08-31T08:18:20.967Z,10.87
2022-08-31T08:20:52.531Z,9.90
2022-08-31T08:23:26.871Z,9.83
2022-08-31T08:25:57.814Z,10.90
2022-08-31T08:28:39.261Z,8.70
2022-08-31T08:31:12.866Z,6.93
2022-08-31T08:33:41.174Z,7.77
2022-08-31T08:36:11.439Z,10.00
2022-08-31T08:38:43.951Z,8.30
2022-08-31T08:41:15.508Z,8.30
2022-08-31T08:43:52.215Z,9.83
2022-08-31T08:46:37.624Z,7.30
2022-08-31T08:49:16.367Z,6.97
2022-08-31T08:51:51.784Z,10.60
2022-08-31T08:54:29.536Z,8.00
2022-08-31T08:56:59.663Z,8.87
2022-08-31T08:59:30.172Z,6.80
2022-08-31T09:02:06.426Z,5.47
2022-08-31T09:04:59.875Z,8.90
2022-08-31T09:07:52.267Z,6.73
2022-08-31T09:10:27.557Z,8.33
2022-08-31T09:13:07.087Z,8.27
2022-08-31T09:15:44.441Z,5.10
2022-08-31T09:18:28.140Z,5.00
2022-08-31T09:21:08.264Z,7.90
2022-08-31T09:23:49.363Z,4.13
2022-08-31T09:26:19.391Z,5.93
2022-08-31T09:28:53.009Z,11.93
2022-08-31T09:31:38.528Z,7.47
2022-08-31T09:34:12.593Z,4.50
2022-08-31T09:36:42.037Z,5.40
2022-08-31T09:39:21.310Z,5.27
2022-08-31T09:41:50.741Z,4.37
2022-08-31T09:44:31.642Z,4.57
2022-08-31T09:47:04.247Z,7.73
2022-08-31T09:49:36.753Z,3.80
2022-08-31T09:52:20.900Z,6.70
2022-08-31T09:55:17.484Z,5.60
2022-08-31T09:57:53.199Z,3.33
2022-08-31T10:00:33.388Z,7.23
2022-08-31T10:03:09.839Z,8.13
2022-08-31T10:05:42.686Z,6.90
2022-08-31T10:08:40.151Z,5.27
2022-08-31T10:11:14.774Z,5.40
2022-08-31T10:13:47.892Z,7.57
2022-08-31T10:16:26.322Z,4.43
2022-08-31T10:19:01.243Z,3.20
2022-08-31T10:21:45.283Z,4.73
2022-08-31T10:24:28.151Z,5.13
2022-08-31T10:27:15.019Z,8.03
2022-08-31T10:29:49.357Z,3.37
2022-08-31T10:32:30.454Z,3.73
2022-08-31T10:35:06.994Z,2.87
2022-08-31T10:37:43.701Z,6.70
2022-08-31T10:40:17.718Z,3.60
2022-08-31T10:42:59.393Z,6.43
2022-08-31T10:45:30.732Z,3.53
2022-08-31T10:48:02.122Z,3.87
2022-08-31T10:50:39.307Z,5.40
2022-08-31T10:53:16.760Z,3.10
2022-08-31T10:55:54.145Z,3.20
2022-08-31T10:58:31.925Z,5.10
2022-08-31T11:01:07.465Z,6.70
2022-08-31T11:04:09.759Z,6.13
2022-08-31T11:06:45.016Z,4.63
2022-08-31T11:09:20.437Z,7.70
2022-08-31T11:11:58.295Z,5.53
2022-08-31T11:14:57.140Z,4.77
2022-08-31T11:17:47.436Z,4.30
2022-08-31T11:20:41.032Z,10.17
2022-08-31T11:23:26.915Z,4.83
2022-08-31T11:26:34.116Z,6.43
2022-08-31T11:29:10.055Z,7.27
2022-08-31T11:31:40.444Z,3.07
2022-08-31T11:34:17.260Z,4.43
2022-08-31T11:36:51.079Z,5.50
2022-08-31T11:39:36.964Z,3.40
2022-08-31T11:42:12.566Z,3.97
2022-08-31T11:45:06.805Z,3.50
2022-08-31T11:47:43.338Z,3.70
2022-08-31T11:50:56.402Z,5.37
2022-08-31T11:53:34.997Z,2.87
2022-08-31T11:56:05.224Z,8.23
2022-08-31T11:58:38.033Z,5.43
2022-08-31T12:01:30.027Z,2.43
2022-08-31T12:04:03.889Z,6.90
2022-08-31T12:06:59.277Z,13.83
2022-08-31T12:09:58.624Z,2.53
2022-08-31T12:13:03.873Z,7.20
2022-08-31T12:15:47.711Z,5.60
2022-08-31T12:18:34.877Z,5.27
2022-08-31T12:21:27.956Z,2.97
2022-08-31T12:24:15.434Z,2.40
2022-08-31T12:26:59.094Z,4.60
2022-08-31T12:29:30.231Z,3.33
2022-08-31T12:32:22.982Z,2.37
2022-08-31T12:35:00.968Z,11.60
2022-08-31T12:37:32.987Z,7.10
2022-08-31T12:40:15.628Z,1.93
2022-08-31T12:42:59.830Z,2.40
2022-08-31T12:46:03.501Z,3.07
2022-08-31T12:49:02.941Z,2.20
2022-08-31T12:51:43.840Z,1.43
2022-08-31T12:54:40.176Z,2.50
2022-08-31T12:57:14.804Z,5.90
2022-08-31T13:00:01.761Z,1.80
2022-08-31T13:02:32.999Z,5.00
2022-08-31T13:05:02.065Z,5.27
2022-08-31T13:07:33.636Z,2.90
2022-08-31T13:10:10.189Z,3.33
2022-08-31T13:12:39.087Z,2.63
2022-08-31T13:15:14.373Z,3.40
2022-08-31T13:17:42.784Z,6.10
2022-08-31T13:20:12.503Z,3.00
2022-08-31T13:22:41.406Z,1.87
2022-08-31T13:25:19.409Z,2.70
2022-08-31T13:27:49.992Z,4.23
2022-08-31T13:30:21.068Z,2.97
2022-08-31T13:32:51.283Z,2.80
2022-08-31T13:35:21.943Z,2.47
2022-08-31T13:38:05.107Z,1.53
2022-08-31T13:40:37.499Z,2.20
2022-08-31T13:43:08.436Z,2.03
2022-08-31T13:45:40.732Z,5.83
2022-08-31T13:48:14.754Z,2.23
2022-08-31T13:50:52.584Z,1.90
2022-08-31T13:53:43.150Z,2.77
2022-08-31T13:56:53.466Z,4.33
2022-08-31T13:59:37.826Z,1.93
2022-08-31T14:02:36.552Z,1.63
2022-08-31T14:05:10.076Z,2.47
2022-08-31T14:08:02.366Z,3.37
2022-08-31T14:10:36.908Z,2.40
2022-08-31T14:13:10.071Z,2.70
2022-08-31T14:15:41.126Z,2.60
2022-08-31T14:18:24.263Z,7.77
2022-08-31T14:21:22.665Z,3.90
2022-08-31T14:23:52.831Z,1.80
2022-08-31T14:26:26.471Z,3.07
2022-08-31T14:29:00.372Z,1.60
2022-08-31T14:31:32.872Z,6.33
2022-08-31T14:34:23.398Z,1.47
2022-08-31T14:36:54.776Z,4.40
2022-08-31T14:39:26.776Z,2.50
2022-08-31T14:41:56.639Z,3.40
2022-08-31T14:44:31.350Z,4.20
2022-08-31T14:46:59.571Z,3.10
2022-08-31T14:49:31.569Z,4.77
2022-08-31T14:52:04.797Z,6.93
2022-08-31T14:54:34.896Z,8.20
2022-08-31T14:57:06.232Z,5.80
2022-08-31T14:59:36.087Z,6.53
2022-08-31T15:02:05.625Z,2.47
2022-08-31T15:04:34.095Z,2.53
2022-08-31T15:07:09.653Z,5.60
2022-08-31T15:09:42.010Z,3.83
2022-08-31T15:12:14.556Z,3.67
2022-08-31T15:14:45.289Z,1.57
2022-08-31T15:17:19.228Z,4.50
2022-08-31T15:19:50.305Z,2.43
2022-08-31T15:22:19.270Z,2.23
2022-08-31T15:24:47.664Z,4.43
2022-08-31T15:27:16.801Z,2.77
2022-08-31T15:29:49.646Z,4.47
2022-08-31T15:32:18.774Z,1.27
2022-08-31T15:34:57.693Z,1.20
2022-08-31T15:37:32.009Z,2.27
2022-08-31T15:40:03.552Z,1.47
2022-08-31T15:42:39.897Z,2.87
2022-08-31T15:45:10.927Z,1.20
2022-08-31T15:47:58.634Z,1.90
2022-08-31T15:50:31.989Z,4.20
2022-08-31T15:53:08.246Z,2.23
2022-08-31T15:55:40.448Z,2.30
2022-08-31T15:58:09.894Z,3.50
2022-08-31T16:00:42.063Z,3.93
2022-08-31T16:03:10.724Z,3.00
2022-08-31T16:05:39.980Z,2.40
2022-08-31T16:08:11.244Z,4.13
2022-08-31T16:10:43.570Z,1.27
2022-08-31T16:13:11.832Z,1.47
2022-08-31T16:15:41.448Z,1.50
2022-08-31T16:18:09.852Z,4.40
2022-08-31T16:20:39.288Z,1.97
2022-08-31T16:23:07.765Z,2.53
2022-08-31T16:25:47.931Z,1.77
2022-08-31T16:28:18.152Z,2.53
2022-08-31T16:30:47.882Z,4.73
2022-08-31T16:33:16.059Z,1.70
2022-08-31T16:35:45.968Z,5.03
2022-08-31T16:38:14.816Z,4.67
2022-08-31T16:40:43.259Z,2.20
2022-08-31T16:43:11.848Z,3.30
2022-08-31T16:45:40.621Z,3.63
2022-08-31T16:48:29.641Z,3.67
2022-08-31T16:51:02.777Z,2.80
2022-08-31T16:53:31.597Z,3.30
2022-08-31T16:56:00.378Z,2.43
2022-08-31T16:58:50.737Z,1.53
2022-08-31T17:01:20.566Z,7.53
2022-08-31T17:03:53.659Z,2.40
2022-08-31T17:06:21.828Z,3.10
2022-08-31T17:08:54.139Z,1.63
2022-08-31T17:11:24.259Z,1.83
2022-08-31T17:13:58.134Z,1.83
2022-08-31T17:16:28.182Z,2.60
2022-08-31T17:18:59.369Z,3.10
2022-08-31T17:21:30.087Z,3.97
2022-08-31T17:24:01.974Z,2.33
2022-08-31T17:26:33.739Z,1.87
2022-08-31T17:29:03.501Z,1.87
2022-08-31T17:31:34.497Z,2.20
2022-08-31T17:34:04.444Z,2.63
2022-08-31T17:36:37.363Z,4.13
2022-08-31T17:39:06.506Z,5.50
2022-08-31T17:41:34.779Z,2.90
2022-08-31T17:44:03.357Z,3.22
2022-08-31T17:46:31.897Z,6.68
2022-08-31T17:49:00.510Z,1.50
2022-08-31T17:51:32.660Z,3.47
2022-08-31T17:54:02.470Z,3.55
2022-08-31T17:56:34.887Z,1.73
2022-08-31T17:59:03.055Z,3.63
2022-08-31T18:01:31.489Z,4.05
2022-08-31T18:04:02.872Z,2.55
2022-08-31T18:06:32.826Z,6.95
2022-08-31T18:09:01.853Z,3.17
2022-08-31T18:11:30.210Z,3.10
2022-08-31T18:13:58.802Z,4.25
2022-08-31T18:16:27.160Z,3.70
2022-08-31T18:18:55.336Z,3.75
2022-08-31T18:21:24.932Z,3.53
2022-08-31T18:23:55.343Z,4.15
2022-08-31T18:26:25.741Z,4.05
2022-08-31T18:28:54.658Z,4.18
2022-08-31T18:31:30.460Z,3.45
2022-08-31T18:33:59.069Z,3.05
2022-08-31T18:36:29.991Z,6.05
2022-08-31T18:39:01.248Z,3.97
2022-08-31T18:41:48.495Z,2.05
2022-08-31T18:44:34.183Z,3.33
2022-08-31T18:47:05.991Z,4.47
2022-08-31T18:49:39.057Z,4.07
2022-08-31T18:52:15.507Z,8.13
2022-08-31T18:54:45.109Z,5.60
2022-08-31T18:57:13.313Z,2.60
2022-08-31T18:59:44.187Z,2.53
2022-08-31T19:02:13.514Z,3.15
2022-08-31T19:04:41.764Z,2.50
2022-08-31T19:07:10.131Z,3.10
2022-08-31T19:09:38.681Z,3.45
2022-08-31T19:12:08.784Z,5.38
2022-08-31T19:14:39.322Z,7.53
2022-08-31T19:17:08.256Z,2.10
2022-08-31T19:19:37.350Z,4.95
2022-08-31T19:22:06.751Z,2.78
2022-08-31T19:24:36.107Z,6.28
2022-08-31T19:27:04.409Z,4.80
2022-08-31T19:29:34.446Z,5.28
2022-08-31T19:32:06.260Z,4.15
2022-08-31T19:34:37.263Z,5.05
2022-08-31T19:37:10.121Z,3.15
2022-08-31T19:39:43.060Z,3.47
2022-08-31T19:42:14.853Z,3.00
2022-08-31T19:44:55.917Z,4.35
2022-08-31T19:47:38.832Z,8.45
2022-08-31T19:50:13.632Z,4.95
2022-08-31T19:52:42.400Z,4.20
2022-08-31T19:55:11.480Z,4.25
2022-08-31T19:57:43.304Z,4.15
2022-08-31T20:00:15.895Z,10.05
2022-08-31T20:02:44.791Z,3.38
2022-08-31T20:05:15.251Z,5.70
2022-08-31T20:07:45.352Z,6.40
2022-08-31T20:10:14.440Z,3.42
2022-08-31T20:12:45.846Z,6.95
2022-08-31T20:15:15.920Z,3.25
2022-08-31T20:17:44.091Z,6.55
2022-08-31T20:20:15.175Z,3.38
2022-08-31T20:22:43.466Z,3.70
2022-08-31T20:25:18.062Z,2.97
2022-08-31T20:27:47.299Z,3.53
2022-08-31T20:30:20.611Z,4.35
2022-08-31T20:32:48.779Z,3.30
2022-08-31T20:35:18.296Z,3.50
2022-08-31T20:37:46.538Z,5.53
2022-08-31T20:40:17.349Z,3.40
2022-08-31T20:42:45.696Z,4.43
2022-08-31T20:45:13.848Z,5.03
2022-08-31T20:48:00.606Z,9.80
2022-08-31T20:50:29.807Z,3.88
2022-08-31T20:52:59.218Z,5.20
2022-08-31T20:55:27.599Z,4.68
2022-08-31T20:57:55.724Z,4.75
2022-08-31T21:00:24.972Z,5.05
2022-08-31T21:02:55.452Z,4.80
2022-08-31T21:05:40.322Z,15.82
2022-08-31T21:08:08.767Z,3.50
2022-08-31T21:10:40.212Z,3.20
2022-08-31T21:13:11.235Z,6.45
2022-08-31T21:15:44.971Z,5.10
2022-08-31T21:18:17.862Z,7.05
2022-08-31T21:20:47.268Z,6.05
2022-08-31T21:23:15.612Z,3.92
2022-08-31T21:25:45.810Z,3.47
2022-08-31T21:28:17.132Z,3.33
2022-08-31T21:30:47.246Z,7.22
2022-08-31T21:33:16.887Z,3.10
2022-08-31T21:35:45.094Z,2.80
2022-08-31T21:38:13.622Z,5.45
2022-08-31T21:40:49.153Z,3.50
2022-08-31T21:43:17.371Z,7.03
2022-08-31T21:45:45.500Z,7.45
2022-08-31T21:48:13.683Z,3.33
2022-08-31T21:50:43.876Z,4.28
2022-08-31T21:53:12.946Z,5.43
2022-08-31T21:55:41.317Z,4.68
2022-08-31T21:58:09.625Z,7.13
2022-08-31T22:00:41.929Z,4.65
2022-08-31T22:03:10.781Z,5.88
2022-08-31T22:05:41.685Z,5.35
2022-08-31T22:08:11.402Z,3.50
2022-08-31T22:10:41.074Z,5.53
2022-08-31T22:13:11.461Z,6.40
2022-08-31T22:15:41.195Z,9.00
2022-08-31T22:18:52.899Z,5.38
2022-08-31T22:21:00.442Z,6.78
2022-08-31T22:23:30.697Z,9.27
2022-08-31T22:25:58.884Z,7.78
2022-08-31T22:28:27.835Z,8.85
2022-08-31T22:30:56.277Z,7.90
2022-08-31T22:33:24.535Z,5.97
2022-08-31T22:35:52.687Z,6.95
2022-08-31T22:38:21.042Z,6.43
2022-08-31T22:40:51.098Z,4.25
2022-08-31T22:43:19.675Z,4.85
2022-08-31T22:45:49.089Z,4.53
2022-08-31T22:48:17.582Z,6.00
2022-08-31T22:50:45.992Z,6.38
2022-08-31T22:53:14.917Z,5.32
2022-08-31T22:55:43.265Z,14.25
2022-08-31T22:58:13.833Z,4.70
2022-08-31T23:00:45.665Z,7.03
2022-08-31T23:03:15.160Z,4.93
2022-08-31T23:05:43.902Z,5.28
2022-08-31T23:08:14.025Z,7.45
2022-08-31T23:10:43.002Z,4.38
2022-08-31T23:13:12.632Z,6.10
2022-08-31T23:15:41.473Z,7.57
2022-08-31T23:18:10.598Z,8.05
2022-08-31T23:20:41.937Z,4.60
2022-08-31T23:23:10.557Z,4.82
2022-08-31T23:25:40.699Z,4.53
2022-08-31T23:28:09.538Z,5.80
2022-08-31T23:30:40.291Z,7.97
2022-08-31T23:33:08.530Z,5.68
2022-08-31T23:35:37.293Z,5.25
2022-08-31T23:38:05.437Z,6.30
2022-08-31T23:40:34.312Z,6.80
2022-08-31T23:43:02.621Z,7.22
2022-08-31T23:45:32.048Z,5.25
2022-08-31T23:48:01.969Z,5.40
2022-08-31T23:50:30.231Z,7.00
2022-08-31T23:52:58.410Z,6.95
2022-08-31T23:55:29.048Z,4.82
2022-08-31T23:57:59.194Z,4.75
